Time;durP1;ratioP1;P1;durP2;ratioP2;P2;SDS_P1;SDS_P2;PMS_P1;PMS_P2;Temp;Humidity;BMP_temperature;BMP_pressure;BME280_temperature;BME280_humidity;BME280_pressure;Samples;Min_cycle;Max_cycle;Signal;HPM_P1;HPM_P2
2022/02/16 00:00:12;;;;;;;2.97;2.70;;;6.50;99.90;;;;;;5091913;28;20697;-57
2022/02/16 00:02:40;;;;;;;3.33;2.97;;;6.50;99.90;;;;;;5092322;28;20208;-59
2022/02/16 00:05:09;;;;;;;3.27;2.87;;;6.50;99.90;;;;;;5092285;28;20226;-56
2022/02/16 00:07:37;;;;;;;3.60;3.03;;;6.50;99.90;;;;;;5091779;28;20205;-57
2022/02/16 00:10:04;;;;;;;3.20;2.50;;;6.50;99.90;;;;;;5091815;28;20207;-58
2022/02/16 00:12:31;;;;;;;3.37;2.30;;;6.50;99.90;;;;;;5091632;28;20350;-55
2022/02/16 00:14:59;;;;;;;3.13;2.57;;;6.50;99.90;;;;;;5091472;28;20227;-60
2022/02/16 00:17:26;;;;;;;3.10;2.80;;;6.50;99.90;;;;;;5091552;28;20218;-60
2022/02/16 00:19:53;;;;;;;4.13;2.77;;;6.50;99.90;;;;;;5091348;28;20212;-59
2022/02/16 00:22:20;;;;;;;3.80;3.23;;;6.50;99.90;;;;;;5091443;28;20204;-57
2022/02/16 00:24:46;;;;;;;3.90;2.83;;;6.50;99.90;;;;;;5091578;28;20237;-55
2022/02/16 00:27:13;;;;;;;3.43;2.60;;;6.50;99.90;;;;;;5090979;28;20255;-58
2022/02/16 00:29:40;;;;;;;3.70;3.07;;;6.50;99.90;;;;;;5091603;28;20214;-57
2022/02/16 00:32:10;;;;;;;3.70;2.83;;;6.50;99.90;;;;;;5091637;28;20247;-57
2022/02/16 00:34:36;;;;;;;4.13;2.90;;;6.50;99.90;;;;;;5092285;28;20270;-58
2022/02/16 00:37:04;;;;;;;3.00;2.70;;;6.50;99.90;;;;;;5094737;28;20226;-60
2022/02/16 00:39:30;;;;;;;4.70;3.10;;;6.50;99.90;;;;;;5095188;28;20582;-59
2022/02/16 00:41:58;;;;;;;2.63;2.30;;;6.50;99.90;;;;;;5095190;28;20261;-60
2022/02/16 00:44:25;;;;;;;3.90;2.83;;;6.50;99.90;;;;;;5094949;28;20299;-58
2022/02/16 00:46:52;;;;;;;3.63;2.70;;;6.50;99.90;;;;;;5094960;28;20277;-59
2022/02/16 00:49:20;;;;;;;3.00;2.50;;;6.50;99.90;;;;;;5094882;28;20222;-61
2022/02/16 00:51:47;;;;;;;3.73;2.50;;;6.50;99.90;;;;;;5095619;28;20231;-60
2022/02/16 00:54:14;;;;;;;3.00;2.70;;;6.60;99.90;;;;;;5095106;28;20220;-58
2022/02/16 00:56:41;;;;;;;3.10;2.03;;;6.50;99.90;;;;;;5096158;28;20211;-58
2022/02/16 00:59:09;;;;;;;2.63;2.40;;;6.60;99.90;;;;;;5096254;28;20681;-59
2022/02/16 01:01:36;;;;;;;3.47;2.63;;;6.60;99.90;;;;;;5095946;28;20215;-57
2022/02/16 01:04:02;;;;;;;2.47;2.27;;;6.60;99.90;;;;;;5095369;28;20624;-59
2022/02/16 01:06:30;;;;;;;2.70;2.40;;;6.60;99.90;;;;;;5094522;28;20211;-61
2022/02/16 01:08:57;;;;;;;3.73;2.60;;;6.60;99.90;;;;;;5094714;28;20208;-59
2022/02/16 01:11:23;;;;;;;5.80;2.63;;;6.70;99.90;;;;;;5094552;28;20204;-61
2022/02/16 01:13:50;;;;;;;2.50;2.10;;;6.70;99.90;;;;;;5094367;28;20631;-59
2022/02/16 01:16:17;;;;;;;2.73;2.23;;;6.70;99.90;;;;;;5094483;28;20219;-59
2022/02/16 01:18:44;;;;;;;3.47;2.57;;;6.70;99.90;;;;;;5095525;28;20227;-57
2022/02/16 01:21:10;;;;;;;2.97;2.67;;;6.70;99.90;;;;;;5099125;28;20200;-58
2022/02/16 01:23:38;;;;;;;4.47;2.73;;;6.70;99.90;;;;;;5095293;28;20266;-53
2022/02/16 01:26:05;;;;;;;3.53;2.80;;;6.70;99.90;;;;;;5094072;28;20208;-53
2022/02/16 01:28:32;;;;;;;2.70;2.40;;;6.70;99.90;;;;;;5094158;28;20214;-55
2022/02/16 01:30:58;;;;;;;4.53;2.40;;;6.70;99.90;;;;;;5094181;28;20200;-57
2022/02/16 01:33:25;;;;;;;2.33;2.10;;;6.70;99.90;;;;;;5093989;28;20225;-56
2022/02/16 01:35:52;;;;;;;2.70;2.10;;;6.70;99.90;;;;;;5094041;28;20227;-59
2022/02/16 01:38:18;;;;;;;2.53;2.13;;;6.70;99.90;;;;;;5094194;28;20204;-52
2022/02/16 01:40:47;;;;;;;2.03;1.83;;;6.70;99.90;;;;;;5094144;28;20257;-54
2022/02/16 01:43:13;;;;;;;2.97;2.37;;;6.70;99.90;;;;;;5095441;28;20276;-55
2022/02/16 01:45:41;;;;;;;2.83;2.30;;;6.70;99.90;;;;;;5094813;28;20217;-58
2022/02/16 01:48:08;;;;;;;1.93;1.73;;;6.70;99.90;;;;;;5093757;28;20647;-59
2022/02/16 01:50:36;;;;;;;2.43;1.60;;;6.60;99.90;;;;;;5093913;28;20227;-55
2022/02/16 01:53:03;;;;;;;2.53;1.93;;;6.70;99.90;;;;;;5093889;28;20220;-54
2022/02/16 01:55:30;;;;;;;2.40;1.97;;;6.70;99.90;;;;;;5095482;28;20694;-59
2022/02/16 01:57:59;;;;;;;2.40;1.90;;;6.70;99.90;;;;;;5095639;28;20204;-59
2022/02/16 02:00:26;;;;;;;2.60;2.30;;;6.70;99.90;;;;;;5094468;28;20212;-59
2022/02/16 02:02:53;;;;;;;2.20;2.00;;;6.70;99.90;;;;;;5093593;28;20256;-59
2022/02/16 02:05:19;;;;;;;2.20;2.00;;;6.70;99.90;;;;;;5093217;28;20578;-59
2022/02/16 02:07:46;;;;;;;2.33;1.90;;;6.70;99.90;;;;;;5093253;28;20272;-57
2022/02/16 02:10:13;;;;;;;2.23;2.00;;;6.70;99.90;;;;;;5093227;28;20598;-58
2022/02/16 02:12:46;;;;;;;2.77;2.10;;;6.70;99.90;;;;;;5092969;28;20250;-57
2022/02/16 02:15:15;;;;;;;3.03;2.17;;;6.70;99.90;;;;;;5093413;28;20208;-58
2022/02/16 02:17:42;;;;;;;3.30;2.50;;;6.70;99.90;;;;;;5092967;28;20265;-58
2022/02/16 02:20:20;;;;;;;2.37;2.17;;;6.70;99.90;;;;;;5093104;28;20215;-57
2022/02/16 02:22:47;;;;;;;3.00;1.90;;;6.80;99.90;;;;;;5092938;28;20208;-59
2022/02/16 02:25:14;;;;;;;6.90;2.50;;;6.80;99.90;;;;;;5092790;28;20216;-57
2022/02/16 02:27:41;;;;;;;3.40;2.43;;;6.80;99.90;;;;;;5093064;28;20261;-57
2022/02/16 02:30:08;;;;;;;3.20;2.43;;;6.80;99.90;;;;;;5092881;28;20292;-53
2022/02/16 02:32:35;;;;;;;3.03;2.70;;;6.80;99.90;;;;;;5092998;28;20257;-59
2022/02/16 02:35:02;;;;;;;3.27;2.97;;;6.80;99.90;;;;;;5092714;28;20227;-58
2022/02/16 02:37:30;;;;;;;4.23;3.40;;;6.80;99.90;;;;;;5092587;28;20674;-57
2022/02/16 02:39:57;;;;;;;3.70;3.03;;;6.80;99.90;;;;;;5092677;28;20204;-57
2022/02/16 02:42:23;;;;;;;4.30;3.40;;;6.80;99.90;;;;;;5092648;28;20212;-59
2022/02/16 02:44:50;;;;;;;3.40;3.03;;;6.80;99.90;;;;;;5092712;28;20277;-61
2022/02/16 02:47:17;;;;;;;5.03;3.00;;;6.80;99.90;;;;;;5092553;28;20208;-59
2022/02/16 02:49:45;;;;;;;3.07;2.63;;;6.90;99.90;;;;;;5092749;28;20215;-60
2022/02/16 02:52:11;;;;;;;3.80;3.33;;;6.90;99.90;;;;;;5092314;28;20686;-58
2022/02/16 02:54:39;;;;;;;4.90;3.33;;;6.90;99.90;;;;;;5092397;28;20228;-57
2022/02/16 02:57:06;;;;;;;4.13;3.03;;;6.90;99.90;;;;;;5092431;28;20279;-57
2022/02/16 02:59:33;;;;;;;4.07;3.67;;;6.90;99.90;;;;;;5092447;28;20231;-56
2022/02/16 03:01:59;;;;;;;4.30;3.50;;;6.90;99.90;;;;;;5092558;28;20208;-57
2022/02/16 03:04:26;;;;;;;4.20;3.50;;;7.00;99.90;;;;;;5091965;28;20220;-55
2022/02/16 03:06:53;;;;;;;3.80;3.10;;;7.00;99.90;;;;;;5092023;28;20264;-57
2022/02/16 03:09:19;;;;;;;5.07;3.77;;;6.90;99.90;;;;;;5092466;28;20265;-56
2022/02/16 03:11:47;;;;;;;4.10;3.50;;;7.00;99.90;;;;;;5092299;28;20204;-56
2022/02/16 03:14:14;;;;;;;5.17;3.40;;;7.00;99.90;;;;;;5092577;28;20250;-58
2022/02/16 03:16:41;;;;;;;4.37;3.80;;;7.00;99.90;;;;;;5092121;28;20200;-60
2022/02/16 03:19:07;;;;;;;3.23;2.90;;;7.00;99.90;;;;;;5092313;28;20225;-58
2022/02/16 03:21:34;;;;;;;3.40;3.00;;;7.00;99.90;;;;;;5092002;28;20700;-59
2022/02/16 03:24:01;;;;;;;3.80;3.40;;;7.00;99.90;;;;;;5091803;28;20273;-58
2022/02/16 03:26:28;;;;;;;4.63;3.80;;;7.00;99.90;;;;;;5091829;28;20234;-58
2022/02/16 03:28:56;;;;;;;4.67;3.50;;;7.00;99.90;;;;;;5091959;28;20242;-60
2022/02/16 03:31:23;;;;;;;5.10;3.70;;;7.10;99.90;;;;;;5092044;28;20621;-56
2022/02/16 03:33:49;;;;;;;3.70;3.20;;;7.10;99.90;;;;;;5091646;28;20224;-58
2022/02/16 03:36:16;;;;;;;4.97;3.53;;;7.10;99.90;;;;;;5092010;28;20220;-58
2022/02/16 03:38:43;;;;;;;4.23;3.83;;;7.10;99.90;;;;;;5092099;28;20207;-58
2022/02/16 03:41:09;;;;;;;4.53;3.83;;;7.10;99.90;;;;;;5091808;28;20619;-59
2022/02/16 03:43:36;;;;;;;3.67;3.10;;;7.10;99.90;;;;;;5092043;28;20315;-57
2022/02/16 03:46:04;;;;;;;4.40;3.40;;;7.20;99.90;;;;;;5091576;28;20228;-59
2022/02/16 03:48:31;;;;;;;3.87;2.87;;;7.20;99.90;;;;;;5091682;28;20604;-59
2022/02/16 03:50:58;;;;;;;3.53;2.93;;;7.20;99.90;;;;;;5091873;28;20662;-60
2022/02/16 03:53:24;;;;;;;4.10;2.93;;;7.20;99.90;;;;;;5091773;28;20596;-55
2022/02/16 03:55:51;;;;;;;5.07;3.10;;;7.20;99.90;;;;;;5091797;28;20257;-58
2022/02/16 03:58:18;;;;;;;4.83;3.67;;;7.30;99.90;;;;;;5092600;28;20626;-57
2022/02/16 04:00:45;;;;;;;3.23;2.93;;;7.30;99.90;;;;;;5092024;28;20273;-56
2022/02/16 04:03:12;;;;;;;3.30;2.67;;;7.30;99.90;;;;;;5091227;28;20228;-59
2022/02/16 04:05:41;;;;;;;3.27;2.70;;;7.20;99.90;;;;;;5091821;28;20228;-60
2022/02/16 04:08:08;;;;;;;2.90;2.43;;;7.30;99.90;;;;;;5091722;28;20208;-56
2022/02/16 04:10:35;;;;;;;2.97;2.37;;;7.30;99.90;;;;;;5094147;28;20212;-57
2022/02/16 04:13:02;;;;;;;3.10;2.40;;;7.30;99.90;;;;;;5095542;28;20250;-59
2022/02/16 04:15:29;;;;;;;3.77;2.50;;;7.30;99.90;;;;;;5095304;28;20208;-58
2022/02/16 04:17:55;;;;;;;3.87;2.20;;;7.30;99.90;;;;;;5095503;28;20295;-58
2022/02/16 04:20:23;;;;;;;2.30;2.10;;;7.30;99.90;;;;;;5095538;28;20208;-59
2022/02/16 04:22:50;;;;;;;2.93;2.20;;;7.30;99.90;;;;;;5095520;28;20238;-59
2022/02/16 04:25:18;;;;;;;3.73;2.00;;;7.30;99.90;;;;;;5095442;28;20330;-57
2022/02/16 04:27:45;;;;;;;3.03;2.47;;;7.30;99.90;;;;;;5095067;28;20208;-57
2022/02/16 04:30:12;;;;;;;2.20;1.73;;;7.30;99.90;;;;;;5095412;28;20265;-58
2022/02/16 04:32:39;;;;;;;2.40;1.93;;;7.30;99.90;;;;;;5095331;28;20690;-57
2022/02/16 04:35:07;;;;;;;2.83;2.00;;;7.30;99.90;;;;;;5095330;28;20200;-60
2022/02/16 04:37:36;;;;;;;5.00;2.30;;;7.30;99.90;;;;;;5095637;28;20261;-60
2022/02/16 04:40:03;;;;;;;3.03;1.80;;;7.30;99.90;;;;;;5095857;28;20204;-58
2022/02/16 04:42:30;;;;;;;2.43;1.77;;;7.30;99.90;;;;;;5095090;28;20254;-58
2022/02/16 04:44:56;;;;;;;3.40;1.93;;;7.30;99.90;;;;;;5094772;28;20229;-58
2022/02/16 04:47:23;;;;;;;2.47;1.83;;;7.20;99.90;;;;;;5095059;28;20278;-59
2022/02/16 04:49:50;;;;;;;2.40;1.80;;;7.20;99.90;;;;;;5094790;28;20639;-58
2022/02/16 04:52:16;;;;;;;2.80;1.73;;;7.20;99.90;;;;;;5095082;28;20708;-59
2022/02/16 04:54:44;;;;;;;2.30;1.73;;;7.20;99.90;;;;;;5096337;28;20273;-56
2022/02/16 04:57:11;;;;;;;3.60;1.97;;;7.20;99.90;;;;;;5096182;28;20204;-59
2022/02/16 04:59:38;;;;;;;3.57;1.70;;;7.20;99.90;;;;;;5096026;28;20215;-58
2022/02/16 05:02:04;;;;;;;2.37;1.73;;;7.20;99.90;;;;;;5095630;28;20781;-57
2022/02/16 05:04:32;;;;;;;2.73;1.80;;;7.20;99.90;;;;;;5095321;28;20647;-54
2022/02/16 05:06:59;;;;;;;2.87;1.63;;;7.20;99.90;;;;;;5096200;28;20298;-60
2022/02/16 05:09:25;;;;;;;2.23;1.80;;;7.20;99.90;;;;;;5096150;28;20623;-54
2022/02/16 05:11:53;;;;;;;2.93;1.77;;;7.30;99.90;;;;;;5094433;28;20212;-55
2022/02/16 05:14:20;;;;;;;2.70;1.90;;;7.30;99.90;;;;;;5094541;28;20282;-54
2022/02/16 05:16:47;;;;;;;3.13;1.67;;;7.30;99.90;;;;;;5095540;28;20239;-60
2022/02/16 05:19:14;;;;;;;2.30;1.77;;;7.30;99.90;;;;;;5096559;28;20211;-60
2022/02/16 05:21:40;;;;;;;2.07;1.70;;;7.30;99.90;;;;;;5095911;28;20211;-58
2022/02/16 05:24:10;;;;;;;5.10;2.00;;;7.30;99.90;;;;;;5094129;28;20239;-61
2022/02/16 05:26:38;;;;;;;1.93;1.50;;;7.30;99.90;;;;;;5093884;28;20232;-58
2022/02/16 05:29:07;;;;;;;5.10;2.07;;;7.30;99.90;;;;;;5094368;28;20239;-59
2022/02/16 05:31:34;;;;;;;2.00;1.63;;;7.30;99.90;;;;;;5094037;28;20204;-59
2022/02/16 05:34:00;;;;;;;1.90;1.70;;;7.30;99.90;;;;;;5093988;28;20604;-58
2022/02/16 05:36:27;;;;;;;2.87;2.00;;;7.30;99.90;;;;;;5093695;28;20204;-55
2022/02/16 05:38:54;;;;;;;3.73;2.13;;;7.40;99.90;;;;;;5093636;28;20204;-56
2022/02/16 05:41:20;;;;;;;2.43;2.03;;;7.40;99.90;;;;;;5092864;28;20216;-63
2022/02/16 05:43:47;;;;;;;2.10;1.80;;;7.40;99.90;;;;;;5093443;28;20282;-58
2022/02/16 05:46:15;;;;;;;1.97;1.77;;;7.40;99.90;;;;;;5093680;28;20224;-60
2022/02/16 05:48:42;;;;;;;2.30;1.70;;;7.40;99.90;;;;;;5093399;28;20671;-60
2022/02/16 05:51:09;;;;;;;2.03;1.67;;;7.40;99.90;;;;;;5093542;28;20209;-59
2022/02/16 05:53:36;;;;;;;2.03;1.37;;;7.40;99.90;;;;;;5093593;28;20228;-60
2022/02/16 05:56:02;;;;;;;1.60;1.40;;;7.40;99.90;;;;;;5093381;28;20276;-61
2022/02/16 05:58:29;;;;;;;1.30;1.20;;;7.40;99.90;;;;;;5093864;28;20208;-57
2022/02/16 06:00:56;;;;;;;1.40;1.23;;;7.50;99.90;;;;;;5093378;28;20224;-61
2022/02/16 06:03:24;;;;;;;2.47;1.80;;;7.50;99.90;;;;;;5093507;28;20642;-57
2022/02/16 06:05:52;;;;;;;1.70;1.30;;;7.50;99.90;;;;;;5093398;28;20293;-58
2022/02/16 06:08:19;;;;;;;1.60;1.50;;;7.50;99.90;;;;;;5093086;28;20663;-57
2022/02/16 06:10:45;;;;;;;1.20;1.10;;;7.50;99.90;;;;;;5094627;28;20671;-60
2022/02/16 06:13:14;;;;;;;1.27;1.10;;;7.50;99.90;;;;;;5093369;28;20650;-61
2022/02/16 06:15:41;;;;;;;2.87;1.97;;;7.60;99.90;;;;;;5093237;28;20200;-59
2022/02/16 06:18:08;;;;;;;1.30;1.17;;;7.60;99.90;;;;;;5092948;28;20208;-59
2022/02/16 06:20:36;;;;;;;1.10;1.00;;;7.60;99.90;;;;;;5092859;28;20253;-61
2022/02/16 06:23:03;;;;;;;1.47;1.10;;;7.60;99.90;;;;;;5093289;28;20228;-61
2022/02/16 06:25:30;;;;;;;2.63;0.93;;;7.70;99.90;;;;;;5092747;28;20220;-57
2022/02/16 06:27:56;;;;;;;0.90;0.70;;;7.70;99.90;;;;;;5092985;28;20261;-59
2022/02/16 06:30:23;;;;;;;0.83;0.60;;;7.70;99.90;;;;;;5089879;28;20254;-64
2022/02/16 06:32:49;;;;;;;0.40;0.33;;;7.70;99.90;;;;;;5079832;28;20208;-59
2022/02/16 06:35:17;;;;;;;0.47;0.30;;;7.80;99.90;;;;;;5091896;28;20196;-60
2022/02/16 06:37:46;;;;;;;2.80;0.60;;;7.80;99.90;;;;;;5092383;28;20201;-61
2022/02/16 06:40:14;;;;;;;0.40;0.40;;;7.80;99.90;;;;;;5092515;28;20220;-61
2022/02/16 06:42:42;;;;;;;1.63;0.50;;;7.80;99.90;;;;;;5091840;28;20219;-61
2022/02/16 06:45:11;;;;;;;0.67;0.40;;;7.80;99.90;;;;;;5092300;28;20211;-58
2022/02/16 06:47:38;;;;;;;0.50;0.30;;;7.80;99.90;;;;;;5092018;28;20616;-61
2022/02/16 06:50:06;;;;;;;0.60;0.40;;;7.80;99.90;;;;;;5091702;28;20678;-60
2022/02/16 06:52:33;;;;;;;0.50;0.37;;;7.80;99.90;;;;;;5092236;28;20208;-59
2022/02/16 06:55:01;;;;;;;0.40;0.40;;;7.80;99.90;;;;;;5091798;28;20235;-59
2022/02/16 06:57:28;;;;;;;0.43;0.40;;;7.80;99.90;;;;;;5092043;28;20205;-59
2022/02/16 06:59:54;;;;;;;0.70;0.50;;;7.80;99.90;;;;;;5092111;28;20208;-60
2022/02/16 07:02:21;;;;;;;2.37;0.67;;;7.70;99.90;;;;;;5091537;28;20609;-60
2022/02/16 07:04:48;;;;;;;0.80;0.60;;;7.70;99.90;;;;;;5092034;28;20235;-60
2022/02/16 07:07:15;;;;;;;1.53;0.60;;;7.70;99.90;;;;;;5091845;28;20604;-59
2022/02/16 07:09:41;;;;;;;0.50;0.47;;;7.70;99.90;;;;;;5091931;28;20624;-60
2022/02/16 07:12:10;;;;;;;1.13;0.63;;;7.70;99.90;;;;;;5091813;28;20621;-61
2022/02/16 07:14:37;;;;;;;1.10;1.00;;;7.70;99.90;;;;;;5091547;28;20227;-62
2022/02/16 07:17:04;;;;;;;1.23;0.63;;;7.70;99.90;;;;;;5091735;28;20273;-61
2022/02/16 07:19:31;;;;;;;0.70;0.70;;;7.70;99.90;;;;;;5091577;28;20230;-58
2022/02/16 07:21:59;;;;;;;0.63;0.63;;;7.80;99.90;;;;;;5091779;28;20212;-61
2022/02/16 07:24:25;;;;;;;1.23;0.60;;;7.80;99.90;;;;;;5091996;28;20650;-58
2022/02/16 07:26:52;;;;;;;1.13;0.80;;;7.80;99.90;;;;;;5091133;28;20216;-60
2022/02/16 07:29:20;;;;;;;0.70;0.70;;;7.80;99.90;;;;;;5091735;28;20252;-62
2022/02/16 07:31:47;;;;;;;1.10;0.70;;;7.80;99.90;;;;;;5091498;28;20208;-62
2022/02/16 07:34:14;;;;;;;0.63;0.60;;;7.80;99.90;;;;;;5091540;28;20220;-61
2022/02/16 07:36:41;;;;;;;2.50;0.63;;;7.80;99.90;;;;;;5091602;28;20670;-63
2022/02/16 07:39:08;;;;;;;1.20;0.70;;;7.90;99.90;;;;;;5091522;28;20204;-61
2022/02/16 07:41:34;;;;;;;1.17;0.60;;;7.90;99.90;;;;;;5091634;28;20212;-60
2022/02/16 07:44:02;;;;;;;1.00;0.70;;;7.90;99.90;;;;;;5091317;28;20717;-62
2022/02/16 07:46:30;;;;;;;1.13;0.63;;;7.90;99.90;;;;;;5095931;28;20231;-61
2022/02/16 07:48:56;;;;;;;1.67;0.53;;;7.90;99.90;;;;;;5095504;28;20867;-61
2022/02/16 07:51:23;;;;;;;0.93;0.73;;;8.00;99.90;;;;;;5095954;28;20287;-60
2022/02/16 07:53:50;;;;;;;0.57;0.50;;;8.00;99.90;;;;;;5096021;28;20301;-60
2022/02/16 07:56:17;;;;;;;1.43;0.63;;;8.00;99.90;;;;;;5095965;28;20204;-61
2022/02/16 07:58:44;;;;;;;1.53;0.70;;;8.00;99.90;;;;;;5095498;28;20209;-61
2022/02/16 08:01:11;;;;;;;0.80;0.67;;;8.10;99.90;;;;;;5095642;28;20642;-61
2022/02/16 08:03:40;;;;;;;0.77;0.50;;;8.10;99.90;;;;;;5095536;28;20236;-61
2022/02/16 08:06:07;;;;;;;0.50;0.50;;;8.10;99.90;;;;;;5095414;28;20265;-61
2022/02/16 08:08:34;;;;;;;1.17;0.60;;;8.20;99.90;;;;;;5095463;28;20208;-61
2022/02/16 08:11:00;;;;;;;1.53;0.80;;;8.10;99.90;;;;;;5094906;28;20204;-61
2022/02/16 08:13:27;;;;;;;1.80;0.77;;;8.10;99.90;;;;;;5094948;28;20223;-60
2022/02/16 08:15:54;;;;;;;0.97;0.60;;;8.10;99.90;;;;;;5095445;28;20633;-56
2022/02/16 08:18:20;;;;;;;1.63;0.50;;;8.10;99.90;;;;;;5095225;28;20582;-56
2022/02/16 08:20:48;;;;;;;1.33;0.87;;;8.00;99.90;;;;;;5095252;28;20212;-59
2022/02/16 08:23:15;;;;;;;1.40;0.90;;;8.00;99.90;;;;;;5095744;28;20224;-60
2022/02/16 08:25:42;;;;;;;1.17;0.80;;;8.00;99.90;;;;;;5095352;28;20624;-60
2022/02/16 08:28:09;;;;;;;1.50;0.90;;;8.10;99.90;;;;;;5095208;28;20253;-59
2022/02/16 08:30:36;;;;;;;1.00;0.73;;;8.10;99.90;;;;;;5095256;28;20234;-61
2022/02/16 08:33:03;;;;;;;1.60;0.77;;;8.10;99.90;;;;;;5094813;28;20301;-61
2022/02/16 08:35:30;;;;;;;1.87;1.20;;;8.10;99.90;;;;;;5095444;28;20295;-62
2022/02/16 08:37:59;;;;;;;1.20;1.10;;;8.10;99.90;;;;;;5095418;28;20249;-61
2022/02/16 08:40:26;;;;;;;1.27;1.03;;;8.10;99.90;;;;;;5095387;28;20582;-61
2022/02/16 08:42:53;;;;;;;1.30;1.20;;;8.20;99.90;;;;;;5095331;28;20208;-58
2022/02/16 08:45:19;;;;;;;1.27;1.13;;;8.20;99.90;;;;;;5095695;28;20204;-61
2022/02/16 08:47:47;;;;;;;1.97;1.50;;;8.20;99.90;;;;;;5096721;28;20741;-62
2022/02/16 08:50:14;;;;;;;2.57;2.10;;;8.30;99.90;;;;;;5100852;28;20281;-63
2022/02/16 08:52:40;;;;;;;1.47;1.27;;;8.30;99.90;;;;;;5100468;28;20564;-64
2022/02/16 08:55:10;;;;;;;2.47;1.37;;;8.40;99.90;;;;;;5094258;28;20251;-69
2022/02/16 08:57:39;;;;;;;2.27;1.73;;;8.40;99.90;;;;;;5095035;28;20270;-68
2022/02/16 09:00:08;;;;;;;1.47;1.23;;;8.40;99.90;;;;;;5094286;28;20208;-69
2022/02/16 09:02:35;;;;;;;1.90;1.70;;;8.50;99.90;;;;;;5094100;28;20210;-68
2022/02/16 09:05:01;;;;;;;1.80;1.53;;;8.50;99.90;;;;;;5094034;28;20717;-68
2022/02/16 09:07:31;;;;;;;3.50;1.90;;;8.50;99.90;;;;;;5093876;28;20272;-61
2022/02/16 09:09:59;;;;;;;2.20;2.00;;;8.60;99.90;;;;;;5094105;28;20633;-61
2022/02/16 09:12:28;;;;;;;2.00;1.80;;;8.70;99.90;;;;;;5094775;28;20278;-59
2022/02/16 09:14:55;;;;;;;2.60;2.10;;;8.70;99.90;;;;;;5094688;28;20220;-56
2022/02/16 09:17:24;;;;;;;2.27;2.00;;;8.70;99.90;;;;;;5094400;28;20198;-61
2022/02/16 09:19:51;;;;;;;3.87;2.63;;;8.80;99.90;;;;;;5094091;28;20201;-61
2022/02/16 09:22:18;;;;;;;3.73;2.90;;;8.90;99.90;;;;;;5093571;28;20247;-60
2022/02/16 09:24:45;;;;;;;3.53;2.93;;;8.90;99.90;;;;;;5094011;28;20229;-59
2022/02/16 09:27:13;;;;;;;3.23;2.73;;;9.00;99.90;;;;;;5093596;28;20275;-62
2022/02/16 09:29:42;;;;;;;3.10;2.80;;;9.00;99.90;;;;;;5093698;28;20665;-62
2022/02/16 09:32:09;;;;;;;3.40;2.13;;;9.00;99.90;;;;;;5093618;28;20210;-63
2022/02/16 09:34:36;;;;;;;3.37;2.80;;;9.10;99.90;;;;;;5093391;28;20235;-63
2022/02/16 09:37:03;;;;;;;2.37;2.17;;;9.10;99.90;;;;;;5093883;28;20207;-61
2022/02/16 09:39:30;;;;;;;2.90;1.33;;;9.20;99.90;;;;;;5093435;28;20208;-62
2022/02/16 09:41:57;;;;;;;1.03;0.93;;;9.30;99.90;;;;;;5093614;28;20792;-62
2022/02/16 09:44:32;;;;;;;1.03;0.90;;;9.40;99.90;;;;;;5093495;28;20236;-60
2022/02/16 09:47:02;;;;;;;0.70;0.70;;;9.40;99.90;;;;;;5093483;28;20216;-61
2022/02/16 09:49:28;;;;;;;0.90;0.77;;;9.40;99.90;;;;;;5093482;28;20219;-60
2022/02/16 09:51:55;;;;;;;1.33;0.70;;;9.50;99.90;;;;;;5093167;28;20588;-60
2022/02/16 09:54:22;;;;;;;1.00;0.80;;;9.50;99.90;;;;;;5093105;28;20221;-60
2022/02/16 09:56:48;;;;;;;1.17;0.50;;;9.60;99.90;;;;;;5093180;28;20199;-61
2022/02/16 09:59:15;;;;;;;2.00;0.60;;;9.60;99.90;;;;;;5092703;28;20202;-60
2022/02/16 10:01:56;;;;;;;0.67;0.67;;;9.70;99.90;;;;;;5092870;28;20545;-60
2022/02/16 10:04:25;;;;;;;0.90;0.80;;;9.70;99.90;;;;;;5093081;28;20226;-62
2022/02/16 10:06:52;;;;;;;1.00;0.80;;;9.70;99.90;;;;;;5092473;28;20276;-61
2022/02/16 10:09:27;;;;;;;1.00;0.90;;;9.70;99.90;;;;;;5093042;28;20223;-61
2022/02/16 10:11:57;;;;;;;0.63;0.63;;;9.70;99.90;;;;;;5092375;28;20206;-61
2022/02/16 10:14:25;;;;;;;2.30;0.80;;;9.70;99.90;;;;;;5092908;28;20239;-61
2022/02/16 10:16:52;;;;;;;1.10;1.00;;;9.80;99.90;;;;;;5092612;28;20207;-61
2022/02/16 10:19:19;;;;;;;1.10;0.80;;;9.80;99.90;;;;;;5092534;28;20208;-60
2022/02/16 10:22:05;;;;;;;1.50;1.10;;;9.90;99.90;;;;;;5092437;28;20215;-61
2022/02/16 10:24:33;;;;;;;1.57;1.40;;;9.90;99.90;;;;;;5092694;28;20231;-61
2022/02/16 10:27:00;;;;;;;2.17;1.47;;;9.90;99.90;;;;;;5092761;28;20227;-61
2022/02/16 10:29:28;;;;;;;2.23;1.60;;;9.90;99.90;;;;;;5092480;28;20211;-61
2022/02/16 10:31:57;;;;;;;2.17;1.60;;;10.00;99.90;;;;;;5092308;28;20613;-62
2022/02/16 10:34:23;;;;;;;1.50;1.30;;;10.10;99.90;;;;;;5092506;28;20220;-62
2022/02/16 10:36:50;;;;;;;2.83;1.90;;;10.10;99.90;;;;;;5092322;28;20227;-62
2022/02/16 10:39:20;;;;;;;2.00;1.60;;;10.10;99.90;;;;;;5092663;28;20204;-62
2022/02/16 10:41:48;;;;;;;3.47;2.73;;;10.10;99.90;;;;;;5091796;28;20302;-63
2022/02/16 10:44:18;;;;;;;3.03;2.23;;;10.10;99.90;;;;;;5092935;28;20224;-62
2022/02/16 10:46:45;;;;;;;2.90;2.10;;;10.10;99.90;;;;;;5092653;28;20220;-62
2022/02/16 10:49:13;;;;;;;3.87;2.00;;;10.20;99.90;;;;;;5092033;28;20242;-58
2022/02/16 10:51:41;;;;;;;1.80;1.40;;;10.20;99.90;;;;;;5092337;28;20214;-59
2022/02/16 10:54:12;;;;;;;2.63;2.10;;;10.30;99.90;;;;;;5091856;28;20224;-63
2022/02/16 10:56:41;;;;;;;3.40;1.80;;;10.30;99.90;;;;;;5092250;28;20242;-61
2022/02/16 10:59:09;;;;;;;2.10;1.40;;;10.30;99.90;;;;;;5092210;28;20216;-61
2022/02/16 11:01:36;;;;;;;3.80;2.00;;;10.30;99.90;;;;;;5091832;28;20227;-62
2022/02/16 11:04:05;;;;;;;1.43;1.30;;;10.30;99.90;;;;;;5091868;28;20311;-60
2022/02/16 11:06:33;;;;;;;2.20;1.23;;;10.30;99.90;;;;;;5091884;28;20243;-61
2022/02/16 11:09:00;;;;;;;1.57;1.10;;;10.30;99.90;;;;;;5092110;28;20208;-59
2022/02/16 11:11:28;;;;;;;3.10;1.20;;;10.40;99.90;;;;;;5091291;28;20287;-61
2022/02/16 11:13:57;;;;;;;1.50;1.40;;;10.40;99.90;;;;;;5091895;28;20227;-61
2022/02/16 11:16:25;;;;;;;1.47;1.30;;;10.40;99.90;;;;;;5091013;28;20204;-61
2022/02/16 11:18:54;;;;;;;2.90;1.37;;;10.50;99.90;;;;;;5091786;28;20300;-58
2022/02/16 11:21:23;;;;;;;2.27;1.43;;;10.50;99.90;;;;;;5091621;28;20208;-61
2022/02/16 11:23:50;;;;;;;1.87;1.50;;;10.60;99.90;;;;;;5091919;28;20231;-59
2022/02/16 11:26:38;;;;;;;1.33;1.23;;;10.60;99.90;;;;;;5091795;28;20581;-59
2022/02/16 11:29:43;;;;;;;1.20;1.10;;;10.70;99.90;;;;;;5093533;28;20229;-59
2022/02/16 11:32:27;;;;;;;1.20;1.10;;;10.70;99.90;;;;;;5092638;28;20200;-59
2022/02/16 11:35:16;;;;;;;1.47;1.20;;;10.80;99.90;;;;;;5092135;28;20345;-61
2022/02/16 11:37:44;;;;;;;1.67;1.17;;;10.80;99.90;;;;;;5092120;28;20288;-61
2022/02/16 11:40:13;;;;;;;1.30;1.20;;;10.80;99.90;;;;;;5091837;28;20201;-69
2022/02/16 11:42:55;;;;;;;1.10;1.00;;;10.90;99.90;;;;;;5091053;28;20208;-68
2022/02/16 11:45:40;;;;;;;1.20;1.10;;;10.90;99.90;;;;;;5091721;28;20204;-67
2022/02/16 11:48:08;;;;;;;1.13;1.03;;;10.90;99.90;;;;;;5091185;28;20228;-67
2022/02/16 11:50:40;;;;;;;1.53;1.10;;;10.90;99.90;;;;;;5091525;28;20308;-67
2022/02/16 11:53:11;;;;;;;2.17;1.30;;;10.90;99.90;;;;;;5091410;28;20227;-67
2022/02/16 11:55:40;;;;;;;1.70;1.40;;;10.90;99.90;;;;;;5091656;28;20211;-67
2022/02/16 11:58:32;;;;;;;1.47;1.10;;;10.90;99.90;;;;;;5091529;28;20214;-68
2022/02/16 12:01:05;;;;;;;1.73;1.50;;;10.90;99.90;;;;;;5081711;28;20211;-67
2022/02/16 12:03:33;;;;;;;1.77;1.60;;;11.00;99.90;;;;;;5095370;28;20227;-66
2022/02/16 12:06:11;;;;;;;4.30;1.40;;;11.00;99.90;;;;;;5091599;28;20204;-66
2022/02/16 12:08:42;;;;;;;3.43;1.40;;;11.10;99.90;;;;;;5091385;28;20309;-66
2022/02/16 12:11:20;;;;;;;1.67;1.43;;;11.10;99.90;;;;;;5094139;28;20293;-67
2022/02/16 12:13:49;;;;;;;2.27;1.60;;;11.10;99.90;;;;;;5096877;28;20228;-67
2022/02/16 12:16:23;;;;;;;1.63;1.50;;;11.10;99.90;;;;;;5091444;28;20265;-67
2022/02/16 12:18:50;;;;;;;1.57;1.47;;;11.10;99.90;;;;;;5095443;28;20287;-67
2022/02/16 12:21:23;;;;;;;1.27;1.17;;;11.10;99.90;;;;;;5097328;28;20208;-67
2022/02/16 12:23:56;;;;;;;2.00;1.40;;;11.10;99.90;;;;;;5092441;28;20264;-66
2022/02/16 12:26:24;;;;;;;1.73;1.37;;;11.10;99.90;;;;;;5093316;28;20225;-67
2022/02/16 12:29:02;;;;;;;1.37;1.27;;;11.10;99.90;;;;;;5091046;28;20315;-66
2022/02/16 12:31:33;;;;;;;2.73;1.80;;;11.20;99.90;;;;;;5093162;28;20693;-66
2022/02/16 12:34:05;;;;;;;2.17;1.67;;;11.10;99.90;;;;;;5095859;28;20224;-67
2022/02/16 12:36:33;;;;;;;2.67;1.40;;;11.20;99.90;;;;;;5094998;28;20236;-68
2022/02/16 12:39:02;;;;;;;2.10;1.63;;;11.20;99.90;;;;;;5095085;28;20682;-67
2022/02/16 12:41:29;;;;;;;2.87;2.57;;;11.20;99.90;;;;;;5094718;28;20290;-65
2022/02/16 12:43:58;;;;;;;3.63;2.50;;;11.20;99.90;;;;;;5094415;28;20220;-65
2022/02/16 12:46:27;;;;;;;2.97;1.87;;;11.20;99.90;;;;;;5094763;28;20205;-66
2022/02/16 12:48:56;;;;;;;2.37;1.23;;;11.20;99.90;;;;;;5094292;28;20767;-67
2022/02/16 12:51:28;;;;;;;2.03;1.63;;;11.20;99.90;;;;;;5094419;28;20581;-67
2022/02/16 12:53:57;;;;;;;1.97;1.40;;;11.30;99.90;;;;;;5094492;28;20293;-67
2022/02/16 12:56:25;;;;;;;3.43;1.80;;;11.30;99.90;;;;;;5094075;28;20200;-68
2022/02/16 12:58:51;;;;;;;1.80;1.40;;;11.30;99.90;;;;;;5094801;28;20197;-66